Terminal Aerodrome Forecast
Issued by NWS

Home | Current Version | Previous Version | Text Only | Print | Product List | Glossary On
Versions: 1 2 3 4 5 6 7 8 9 10 11 12 13 14 15 16 17
000
FTUS43 KSGF 260500
TAFJLN
TAF
KJLN 260520Z 2606/2706 02007KT P6SM SCT008 OVC016
      TEMPO 2606/2608 BKN008 OVC016
     FM260800 03006KT 5SM BR OVC008
     FM261400 06011KT P6SM SCT007 BKN015
     FM261700 06010KT P6SM BKN025
     FM262000 07012KT P6SM BKN050
     FM270000 08010KT P6SM SKC=

USA.gov is the U.S. government's official web portal to all federal, state and local government web resources and services.